createdAt,value
2019-02-16T00:02:35.341Z,-1.70
2019-02-16T00:05:09.732Z,-1.60
2019-02-16T00:07:41.559Z,-1.60
2019-02-16T00:10:14.795Z,-1.70
2019-02-16T00:12:46.708Z,-1.80
2019-02-16T00:15:18.699Z,-1.80
2019-02-16T00:17:50.624Z,-1.90
2019-02-16T00:20:21.763Z,-1.90
2019-02-16T00:22:52.959Z,-1.90
2019-02-16T00:25:26.980Z,-1.90
2019-02-16T00:28:05.895Z,-1.90
2019-02-16T00:30:48.692Z,-1.90
2019-02-16T00:33:20.157Z,-2.00
2019-02-16T00:35:51.630Z,-2.00
2019-02-16T00:38:22.905Z,-2.00
2019-02-16T00:40:54.001Z,-2.00
2019-02-16T00:43:25.715Z,-2.10
2019-02-16T00:45:57.261Z,-2.10
2019-02-16T00:48:30.511Z,-2.20
2019-02-16T00:51:12.895Z,-2.20
2019-02-16T00:53:39.467Z,-2.20
2019-02-16T00:56:10.522Z,-2.00
2019-02-16T00:58:41.847Z,-1.90
2019-02-16T01:01:13.418Z,-1.80
2019-02-16T01:03:45.978Z,-1.70
2019-02-16T01:06:18.169Z,-1.80
2019-02-16T01:08:50.027Z,-1.90
2019-02-16T01:11:21.963Z,-2.00
2019-02-16T01:13:54.170Z,-2.10
2019-02-16T01:16:26.532Z,-2.10
2019-02-16T01:19:35.774Z,-2.20
2019-02-16T01:22:22.186Z,-2.20
2019-02-16T01:24:54.010Z,-2.20
2019-02-16T01:27:25.720Z,-2.20
2019-02-16T01:29:59.790Z,-2.30
2019-02-16T01:32:30.886Z,-2.30
2019-02-16T01:35:01.984Z,-2.30
2019-02-16T01:37:33.125Z,-2.30
2019-02-16T01:40:04.487Z,-2.30
2019-02-16T01:42:35.636Z,-2.30
2019-02-16T01:45:07.809Z,-2.40
2019-02-16T01:47:38.929Z,-2.50
2019-02-16T01:50:10.490Z,-2.50
2019-02-16T01:52:41.654Z,-2.50
2019-02-16T01:55:12.733Z,-2.50
2019-02-16T01:57:44.383Z,-2.50
2019-02-16T02:00:15.454Z,-2.60
2019-02-16T02:02:49.553Z,-2.60
2019-02-16T02:05:20.864Z,-2.70
2019-02-16T02:07:51.915Z,-2.70
2019-02-16T02:10:23.557Z,-2.70
2019-02-16T02:12:55.450Z,-2.70
2019-02-16T02:15:28.247Z,-2.80
2019-02-16T02:18:00.003Z,-2.80
2019-02-16T02:20:31.704Z,-2.80
2019-02-16T02:23:03.703Z,-2.80
2019-02-16T02:25:38.287Z,-2.80
2019-02-16T02:28:09.632Z,-2.70
2019-02-16T02:30:40.727Z,-2.70
2019-02-16T02:33:11.762Z,-2.70
2019-02-16T02:35:53.519Z,-2.70
2019-02-16T02:38:24.567Z,-2.80
2019-02-16T02:41:00.790Z,-2.80
2019-02-16T02:43:31.973Z,-2.80
2019-02-16T02:46:03.257Z,-2.90
2019-02-16T02:48:34.400Z,-2.90
2019-02-16T02:51:07.558Z,-2.90
2019-02-16T02:53:42.142Z,-3.00
2019-02-16T02:56:14.811Z,-3.00
2019-02-16T02:58:48.830Z,-3.00
2019-02-16T03:01:20.005Z,-3.00
2019-02-16T03:03:53.099Z,-3.00
2019-02-16T03:06:24.196Z,-3.00
2019-02-16T03:08:55.483Z,-3.10
2019-02-16T03:11:26.820Z,-3.10
2019-02-16T03:13:59.179Z,-3.00
2019-02-16T03:16:30.481Z,-3.00
2019-02-16T03:19:15.297Z,-3.00
2019-02-16T03:21:49.696Z,-3.00
2019-02-16T03:24:22.993Z,-3.10
2019-02-16T03:27:08.114Z,-3.10
2019-02-16T03:30:13.266Z,-3.10
2019-02-16T03:33:34.765Z,-3.10
2019-02-16T03:37:01.648Z,-3.10
2019-02-16T03:39:36.969Z,-3.00
2019-02-16T03:42:08.844Z,-2.90
2019-02-16T03:44:40.812Z,-2.90
2019-02-16T03:47:11.937Z,-2.90
2019-02-16T03:49:43.111Z,-3.00
2019-02-16T03:52:14.435Z,-3.00
2019-02-16T03:54:46.125Z,-3.10
2019-02-16T03:57:21.296Z,-3.20
2019-02-16T03:59:52.361Z,-3.20
2019-02-16T04:02:25.484Z,-3.30
2019-02-16T04:04:56.559Z,-3.30
2019-02-16T04:07:27.597Z,-3.30
2019-02-16T04:09:58.671Z,-3.40
2019-02-16T04:12:29.713Z,-3.40
2019-02-16T04:15:00.801Z,-3.30
2019-02-16T04:17:34.079Z,-3.40
2019-02-16T04:20:06.884Z,-3.40
2019-02-16T04:22:37.923Z,-3.40
2019-02-16T04:25:10.099Z,-3.50
2019-02-16T04:27:43.727Z,-3.50
2019-02-16T04:30:14.854Z,-3.50
2019-02-16T04:32:45.918Z,-3.50
2019-02-16T04:35:16.959Z,-3.50
2019-02-16T04:37:48.109Z,-3.50
2019-02-16T04:40:19.272Z,-3.60
2019-02-16T04:42:54.695Z,-3.60
2019-02-16T04:45:25.795Z,-3.60
2019-02-16T04:47:56.960Z,-3.60
2019-02-16T04:50:27.987Z,-3.60
2019-02-16T04:52:59.448Z,-3.60
2019-02-16T04:55:30.645Z,-3.60
2019-02-16T04:58:05.066Z,-3.50
2019-02-16T05:00:37.130Z,-3.50
2019-02-16T05:03:10.321Z,-3.50
2019-02-16T05:05:42.169Z,-3.50
2019-02-16T05:08:17.322Z,-3.50
2019-02-16T05:10:48.407Z,-3.50
2019-02-16T05:13:19.477Z,-3.50
2019-02-16T05:15:52.165Z,-3.60
2019-02-16T05:18:23.287Z,-3.60
2019-02-16T05:20:54.368Z,-3.60
2019-02-16T05:23:25.459Z,-3.70
2019-02-16T05:25:56.520Z,-3.70
2019-02-16T05:28:27.649Z,-3.80
2019-02-16T05:30:59.073Z,-3.80
2019-02-16T05:33:31.271Z,-3.80
2019-02-16T05:36:02.458Z,-3.70
2019-02-16T05:38:33.591Z,-3.70
2019-02-16T05:41:04.673Z,-3.70
2019-02-16T05:43:37.770Z,-3.60
2019-02-16T05:46:10.248Z,-3.50
2019-02-16T05:48:41.690Z,-3.40
2019-02-16T05:51:12.788Z,-3.40
2019-02-16T05:53:45.540Z,-3.40
2019-02-16T05:56:16.713Z,-3.50
2019-02-16T05:58:47.747Z,-3.60
2019-02-16T06:01:18.850Z,-3.60
2019-02-16T06:03:50.014Z,-3.70
2019-02-16T06:06:21.165Z,-3.70
2019-02-16T06:08:52.314Z,-3.80
2019-02-16T06:11:27.325Z,-3.80
2019-02-16T06:13:58.569Z,-3.80
2019-02-16T06:16:30.784Z,-3.80
2019-02-16T06:19:01.937Z,-3.80
2019-02-16T06:21:33.177Z,-3.80
2019-02-16T06:24:04.353Z,-3.80
2019-02-16T06:26:35.667Z,-3.90
2019-02-16T06:29:08.601Z,-3.80
2019-02-16T06:31:41.701Z,-3.80
2019-02-16T06:34:14.334Z,-3.80
2019-02-16T06:36:45.451Z,-3.70
2019-02-16T06:39:16.651Z,-3.70
2019-02-16T06:41:49.818Z,-3.60
2019-02-16T06:44:21.267Z,-3.60
2019-02-16T06:46:55.207Z,-3.50
2019-02-16T06:49:26.315Z,-3.30
2019-02-16T06:51:57.415Z,-3.20
2019-02-16T06:54:31.437Z,-3.10
2019-02-16T06:57:23.299Z,-3.00
2019-02-16T06:59:57.817Z,-2.90
2019-02-16T07:02:31.486Z,-2.70
2019-02-16T07:05:03.497Z,-2.50
2019-02-16T07:07:34.883Z,-2.30
2019-02-16T07:10:07.052Z,-2.00
2019-02-16T07:12:38.351Z,-1.80
2019-02-16T07:15:11.367Z,-1.50
2019-02-16T07:17:50.066Z,-1.20
2019-02-16T07:20:36.189Z,-1.00
2019-02-16T07:23:07.261Z,-0.70
2019-02-16T07:25:38.396Z,-0.40
2019-02-16T07:28:19.059Z,-0.20
2019-02-16T07:30:52.779Z,0.20
2019-02-16T07:33:24.510Z,0.40
2019-02-16T07:36:07.443Z,0.60
2019-02-16T07:38:40.850Z,0.80
2019-02-16T07:41:27.993Z,0.90
2019-02-16T07:44:24.386Z,1.10
2019-02-16T07:47:04.364Z,1.10
2019-02-16T07:50:00.533Z,1.30
2019-02-16T07:52:50.152Z,1.60
2019-02-16T07:55:30.218Z,2.00
2019-02-16T07:58:38.712Z,2.40
2019-02-16T08:01:25.613Z,2.70
2019-02-16T08:04:10.310Z,3.00
2019-02-16T08:07:00.800Z,3.30
2019-02-16T08:09:50.844Z,3.50
2019-02-16T08:12:59.051Z,3.70
2019-02-16T08:15:44.011Z,3.90
2019-02-16T08:18:39.108Z,4.20
2019-02-16T08:21:26.910Z,4.40
2019-02-16T08:24:05.668Z,4.50
2019-02-16T08:26:55.519Z,4.70
2019-02-16T08:29:48.606Z,4.60
2019-02-16T08:32:38.732Z,4.70
2019-02-16T08:35:28.690Z,4.80
2019-02-16T08:38:12.234Z,4.90
2019-02-16T08:40:53.195Z,5.00
2019-02-16T08:43:38.592Z,5.10
2019-02-16T08:46:31.753Z,5.20
2019-02-16T08:49:10.887Z,5.30
2019-02-16T08:52:13.289Z,5.50
2019-02-16T08:55:09.110Z,5.60
2019-02-16T08:58:11.172Z,5.80
2019-02-16T09:01:01.241Z,6.00
2019-02-16T09:03:57.403Z,6.20
2019-02-16T09:06:42.034Z,6.50
2019-02-16T09:09:35.102Z,6.80
2019-02-16T09:12:37.124Z,7.00
2019-02-16T09:15:37.083Z,7.20
2019-02-16T09:18:33.444Z,7.40
2019-02-16T09:21:36.040Z,7.60
2019-02-16T09:24:17.121Z,7.80
2019-02-16T09:27:10.747Z,8.00
2019-02-16T09:30:01.847Z,8.20
2019-02-16T09:32:43.140Z,8.40
2019-02-16T09:35:24.341Z,8.50
2019-02-16T09:38:14.545Z,8.70
2019-02-16T09:41:13.702Z,8.80
2019-02-16T09:44:19.171Z,9.00
2019-02-16T09:47:18.538Z,9.10
2019-02-16T09:49:59.717Z,9.20
2019-02-16T09:52:52.508Z,9.40
2019-02-16T09:55:51.760Z,9.60
2019-02-16T09:58:29.282Z,9.70
2019-02-16T10:01:10.186Z,9.90
2019-02-16T10:03:47.137Z,10.00
2019-02-16T10:06:55.553Z,10.10
2019-02-16T10:09:57.902Z,10.10
2019-02-16T10:12:42.028Z,10.20
2019-02-16T10:15:21.980Z,10.20
2019-02-16T10:18:18.305Z,10.20
2019-02-16T10:21:06.951Z,10.20
2019-02-16T10:23:50.526Z,10.30
2019-02-16T10:26:39.580Z,10.30
2019-02-16T10:29:26.583Z,10.40
2019-02-16T10:32:16.871Z,10.50
2019-02-16T10:35:04.357Z,10.70
2019-02-16T10:37:54.941Z,10.90
2019-02-16T10:40:39.007Z,11.00
2019-02-16T10:43:28.208Z,11.20
2019-02-16T10:46:17.040Z,11.30
2019-02-16T10:48:54.569Z,11.60
2019-02-16T10:51:43.977Z,11.70
2019-02-16T10:54:32.122Z,11.90
2019-02-16T10:57:25.294Z,12.10
2019-02-16T11:00:24.776Z,12.40
2019-02-16T11:03:17.602Z,12.70
2019-02-16T11:06:07.731Z,12.90
2019-02-16T11:08:49.646Z,13.20
2019-02-16T11:11:45.469Z,13.30
2019-02-16T11:14:33.970Z,13.40
2019-02-16T11:17:18.168Z,13.60
2019-02-16T11:20:20.482Z,13.70
2019-02-16T11:22:59.315Z,13.90
2019-02-16T11:25:52.826Z,14.00
2019-02-16T11:28:40.558Z,14.00
2019-02-16T11:31:29.445Z,14.20
2019-02-16T11:34:14.636Z,14.40
2019-02-16T11:37:00.870Z,14.50
2019-02-16T11:39:43.651Z,14.60
2019-02-16T11:42:29.034Z,14.70
2019-02-16T11:45:16.267Z,14.80
2019-02-16T11:48:00.656Z,15.00
2019-02-16T11:50:55.097Z,15.10
2019-02-16T11:53:35.450Z,15.20
2019-02-16T11:56:27.106Z,15.30
2019-02-16T11:59:17.069Z,15.40
2019-02-16T12:01:59.816Z,15.40
2019-02-16T12:04:48.455Z,15.60
2019-02-16T12:07:34.102Z,15.70
2019-02-16T12:10:14.415Z,15.70
2019-02-16T12:13:03.528Z,15.90
2019-02-16T12:15:53.560Z,16.10
2019-02-16T12:18:35.013Z,16.20
2019-02-16T12:21:42.966Z,16.40
2019-02-16T12:24:32.342Z,16.50
2019-02-16T12:27:37.361Z,16.70
2019-02-16T12:30:43.491Z,16.80
2019-02-16T12:33:37.789Z,16.90
2019-02-16T12:36:27.760Z,17.20
2019-02-16T12:39:20.361Z,17.30
2019-02-16T12:42:07.046Z,17.50
2019-02-16T12:45:02.959Z,17.60
2019-02-16T12:47:51.736Z,17.60
2019-02-16T12:50:36.828Z,17.70
2019-02-16T12:53:25.935Z,17.80
2019-02-16T12:56:25.244Z,17.90
2019-02-16T12:59:10.270Z,18.00
2019-02-16T13:01:51.209Z,18.00
2019-02-16T13:04:47.513Z,18.10
2019-02-16T13:07:32.931Z,18.10
2019-02-16T13:10:14.990Z,18.10
2019-02-16T13:12:52.851Z,18.10
2019-02-16T13:15:42.615Z,18.20
2019-02-16T13:18:24.124Z,18.20
2019-02-16T13:21:13.470Z,18.20
2019-02-16T13:24:12.763Z,18.20
2019-02-16T13:27:01.746Z,18.20
2019-02-16T13:29:50.881Z,18.30
2019-02-16T13:32:31.744Z,18.40
2019-02-16T13:35:14.687Z,18.50
2019-02-16T13:38:04.748Z,18.60
2019-02-16T13:41:00.614Z,18.70
2019-02-16T13:43:56.670Z,18.80
2019-02-16T13:46:52.171Z,18.80
2019-02-16T13:49:33.052Z,18.90
2019-02-16T13:52:25.841Z,18.80
2019-02-16T13:55:12.875Z,18.80
2019-02-16T13:57:51.145Z,18.70
2019-02-16T14:00:29.666Z,18.60
2019-02-16T14:03:09.795Z,18.70
2019-02-16T14:06:05.905Z,18.80
2019-02-16T14:08:55.916Z,18.90
2019-02-16T14:11:45.956Z,19.00
2019-02-16T14:14:44.806Z,19.20
2019-02-16T14:17:38.075Z,19.40
2019-02-16T14:20:09.828Z,19.40
2019-02-16T14:22:44.642Z,19.50
2019-02-16T14:26:01.814Z,19.60
2019-02-16T14:28:36.089Z,19.60
2019-02-16T14:31:09.356Z,19.80
2019-02-16T14:33:41.195Z,19.80
2019-02-16T14:36:12.370Z,19.90
2019-02-16T14:38:51.725Z,20.00
2019-02-16T14:41:22.876Z,20.00
2019-02-16T14:43:54.037Z,20.10
2019-02-16T14:46:25.208Z,20.20
2019-02-16T14:48:56.308Z,20.30
2019-02-16T14:51:27.460Z,20.40
2019-02-16T14:53:58.625Z,20.50
2019-02-16T14:56:29.927Z,20.60
2019-02-16T14:59:01.605Z,20.80
2019-02-16T15:01:33.155Z,20.80
2019-02-16T15:04:04.355Z,20.90
2019-02-16T15:06:36.573Z,21.20
2019-02-16T15:09:08.056Z,21.40
2019-02-16T15:11:39.211Z,21.50
2019-02-16T15:14:10.347Z,21.50
2019-02-16T15:16:42.603Z,20.90
2019-02-16T15:19:14.745Z,19.90
2019-02-16T15:21:51.579Z,18.90
2019-02-16T15:24:23.192Z,17.90
2019-02-16T15:26:56.023Z,16.90
2019-02-16T15:29:27.693Z,16.20
2019-02-16T15:31:58.923Z,15.60
2019-02-16T15:34:30.150Z,15.00
2019-02-16T15:37:01.304Z,14.60
2019-02-16T15:39:32.476Z,14.20
2019-02-16T15:42:08.789Z,13.80
2019-02-16T15:44:40.199Z,13.50
2019-02-16T15:47:12.491Z,13.20
2019-02-16T15:49:43.703Z,12.90
2019-02-16T15:52:16.739Z,12.60
2019-02-16T15:54:48.305Z,12.30
2019-02-16T15:57:19.376Z,12.00
2019-02-16T15:59:50.474Z,11.70
2019-02-16T16:02:21.603Z,11.50
2019-02-16T16:04:52.738Z,11.20
2019-02-16T16:07:23.838Z,11.00
2019-02-16T16:10:13.876Z,10.70
2019-02-16T16:13:15.962Z,10.40
2019-02-16T16:16:05.953Z,10.10
2019-02-16T16:18:48.850Z,9.80
2019-02-16T16:21:38.928Z,9.40
2019-02-16T16:24:29.164Z,9.20
2019-02-16T16:27:25.343Z,8.90
2019-02-16T16:30:09.531Z,8.70
2019-02-16T16:32:47.459Z,8.40
2019-02-16T16:35:40.558Z,8.20
2019-02-16T16:38:52.696Z,8.00
2019-02-16T16:42:01.891Z,7.80
2019-02-16T16:44:49.343Z,7.60
2019-02-16T16:47:37.893Z,7.40
2019-02-16T16:50:27.889Z,7.20
2019-02-16T16:53:17.860Z,7.00
2019-02-16T16:56:12.971Z,6.90
2019-02-16T16:59:15.045Z,6.70
2019-02-16T17:02:03.726Z,6.50
2019-02-16T17:04:59.620Z,6.30
2019-02-16T17:07:48.556Z,6.20
2019-02-16T17:10:37.250Z,6.00
2019-02-16T17:13:36.182Z,5.80
2019-02-16T17:16:25.062Z,5.60
2019-02-16T17:19:07.613Z,5.40
2019-02-16T17:22:03.969Z,5.20
2019-02-16T17:24:42.358Z,5.10
2019-02-16T17:27:25.270Z,5.00
2019-02-16T17:30:06.002Z,4.80
2019-02-16T17:32:51.173Z,4.70
2019-02-16T17:35:44.070Z,4.60
2019-02-16T17:38:32.996Z,4.50
2019-02-16T17:41:13.244Z,4.40
2019-02-16T17:43:56.205Z,4.30
2019-02-16T17:46:46.289Z,4.20
2019-02-16T17:49:35.664Z,4.10
2019-02-16T17:52:28.302Z,4.00
2019-02-16T17:55:11.420Z,3.90
2019-02-16T17:57:51.578Z,3.80
2019-02-16T18:00:44.603Z,3.80
2019-02-16T18:03:46.748Z,3.70
2019-02-16T18:06:52.070Z,3.60
2019-02-16T18:09:41.673Z,3.50
2019-02-16T18:12:30.039Z,3.40
2019-02-16T18:15:19.275Z,3.30
2019-02-16T18:18:14.647Z,3.20
2019-02-16T18:21:03.408Z,3.10
2019-02-16T18:23:59.909Z,3.00
2019-02-16T18:26:55.791Z,2.90
2019-02-16T18:29:53.629Z,2.90
2019-02-16T18:32:46.594Z,2.80
2019-02-16T18:35:36.786Z,2.80
2019-02-16T18:38:33.117Z,2.60
2019-02-16T18:41:50.954Z,2.60
2019-02-16T18:44:47.345Z,2.50
2019-02-16T18:47:46.578Z,2.40
2019-02-16T18:50:31.631Z,2.40
2019-02-16T18:53:10.860Z,2.30
2019-02-16T18:55:51.224Z,2.20
2019-02-16T18:58:54.601Z,2.20
2019-02-16T19:01:50.447Z,2.10
2019-02-16T19:04:48.680Z,2.10
2019-02-16T19:07:30.393Z,2.00
2019-02-16T19:10:16.167Z,1.80
2019-02-16T19:13:15.459Z,1.80
2019-02-16T19:16:08.368Z,1.70
2019-02-16T19:18:57.188Z,1.60
2019-02-16T19:21:36.708Z,1.50
2019-02-16T19:24:32.835Z,1.40
2019-02-16T19:27:21.962Z,1.40
2019-02-16T19:30:13.000Z,1.40
2019-02-16T19:33:04.209Z,1.30
2019-02-16T19:35:50.040Z,1.20
2019-02-16T19:38:40.317Z,1.20
2019-02-16T19:41:30.780Z,1.10
2019-02-16T19:44:38.437Z,1.10
2019-02-16T19:47:36.536Z,1.10
2019-02-16T19:50:20.138Z,1.00
2019-02-16T19:53:10.758Z,1.00
2019-02-16T19:56:01.692Z,1.00
2019-02-16T19:59:04.511Z,0.80
2019-02-16T20:02:10.142Z,0.80
2019-02-16T20:05:05.210Z,0.70
2019-02-16T20:07:55.527Z,0.60
2019-02-16T20:10:47.053Z,0.60
2019-02-16T20:13:33.265Z,0.60
2019-02-16T20:16:23.303Z,0.50
2019-02-16T20:19:12.080Z,0.40
2019-02-16T20:22:08.478Z,0.40
2019-02-16T20:51:58.956Z,0.00
2019-02-16T20:54:58.310Z,-0.10
2019-02-16T20:57:35.904Z,-0.20
2019-02-16T21:00:14.084Z,-0.20
2019-02-16T21:03:04.391Z,-0.30
2019-02-16T21:06:01.543Z,-0.40
2019-02-16T21:08:42.503Z,-0.50
2019-02-16T21:11:27.657Z,-0.50
2019-02-16T21:14:23.935Z,-0.60
2019-02-16T21:18:00.737Z,-0.60
2019-02-16T21:20:56.619Z,-0.70
2019-02-16T21:23:49.523Z,-0.70
2019-02-16T21:26:36.483Z,-0.70
2019-02-16T21:29:30.159Z,-0.80
2019-02-16T21:32:32.587Z,-0.80
2019-02-16T21:35:41.059Z,-0.80
2019-02-16T21:38:27.969Z,-0.80
2019-02-16T21:41:36.426Z,-0.90
2019-02-16T21:44:24.242Z,-0.90
2019-02-16T21:47:20.372Z,-1.00
2019-02-16T21:50:09.187Z,-1.00
2019-02-16T21:52:59.354Z,-1.10
2019-02-16T21:56:01.633Z,-1.10
2019-02-16T21:58:50.719Z,-1.10
2019-02-16T22:01:32.650Z,-1.20
2019-02-16T22:04:41.204Z,-1.10
2019-02-16T22:07:29.487Z,-1.10
2019-02-16T22:10:34.718Z,-1.10
2019-02-16T22:13:08.546Z,-1.10
2019-02-16T22:15:39.796Z,-1.20
2019-02-16T22:22:13.489Z,-1.20
2019-02-16T22:24:47.932Z,-1.30
2019-02-16T22:27:19.300Z,-1.30
2019-02-16T22:29:51.642Z,-1.40
2019-02-16T22:32:22.737Z,-1.40
2019-02-16T22:34:54.009Z,-1.30
2019-02-16T22:37:25.478Z,-1.40
2019-02-16T22:39:56.674Z,-1.40
2019-02-16T22:42:27.945Z,-1.40
2019-02-16T22:44:59.150Z,-1.50
2019-02-16T22:47:30.252Z,-1.50
2019-02-16T22:50:01.560Z,-1.60
2019-02-16T22:52:32.740Z,-1.60
2019-02-16T22:55:03.876Z,-1.60
2019-02-16T22:57:36.165Z,-1.60
2019-02-16T23:00:11.317Z,-1.60
2019-02-16T23:02:42.719Z,-1.60
2019-02-16T23:05:14.353Z,-1.70
2019-02-16T23:07:45.567Z,-1.70
2019-02-16T23:10:16.728Z,-1.80
2019-02-16T23:12:47.970Z,-1.80
2019-02-16T23:15:19.161Z,-1.80
2019-02-16T23:17:50.346Z,-1.80
2019-02-16T23:20:21.499Z,-1.80
2019-02-16T23:22:52.682Z,-1.70
2019-02-16T23:25:23.894Z,-1.70
2019-02-16T23:27:55.025Z,-1.70
2019-02-16T23:30:26.113Z,-1.80
2019-02-16T23:32:57.323Z,-1.80
2019-02-16T23:35:28.435Z,-1.80
2019-02-16T23:37:59.560Z,-1.80
2019-02-16T23:40:30.649Z,-1.90
2019-02-16T23:43:01.844Z,-1.90
2019-02-16T23:45:32.962Z,-2.00
2019-02-16T23:48:04.034Z,-2.00
2019-02-16T23:50:35.202Z,-2.00
2019-02-16T23:53:06.322Z,-2.10
2019-02-16T23:55:37.494Z,-2.10
2019-02-16T23:58:08.661Z,-2.10
